Terminal Aerodrome Forecast
Issued by NWS

Home | Current Version | Previous Version | Text Only | Print | Product List | Glossary On
Versions: 1 2 3 4 5 6 7 8 9 10 11 12 13 14 15 16
000
FTUS43 KOAX 050520
TAFSNY
TAF
KSNY 050520Z 0506/0606 16011KT P6SM SCT100
     FM051500 18012G23KT P6SM SCT050
     FM052000 18016G28KT P6SM VCTS BKN050CB
      TEMPO 0520/0524 VRB20G35KT 4SM TSRAGS
     FM060000 33015G25KT P6SM VCSH BKN040=

USA.gov is the U.S. government's official web portal to all federal, state and local government web resources and services.